Time;durP1;ratioP1;P1;durP2;ratioP2;P2;SDS_P1;SDS_P2;PMS_P1;PMS_P2;Temp;Humidity;BMP_temperature;BMP_pressure;BME280_temperature;BME280_humidity;BME280_pressure;Samples;Min_cycle;Max_cycle;Signal;HPM_P1;HPM_P2
2024/03/15 00:00:13;;;;;;;9.27;4.68;;;;;;;11.96;100.00;69733.13;5075474;28;20503;-52
2024/03/15 00:02:41;;;;;;;8.18;4.38;;;;;;;11.95;100.00;69721.47;5080886;28;20052;-53
2024/03/15 00:05:13;;;;;;;7.87;4.40;;;;;;;11.95;100.00;69731.94;5086331;28;20070;-47
2024/03/15 00:07:41;;;;;;;8.32;4.53;;;;;;;11.96;100.00;69730.50;5089386;28;20054;-46
2024/03/15 00:10:09;;;;;;;10.95;4.60;;;;;;;11.94;100.00;69725.56;5085036;28;20039;-46
2024/03/15 00:12:41;;;;;;;9.35;4.85;;;;;;;11.96;100.00;69725.28;5086275;28;20039;-46
2024/03/15 00:15:09;;;;;;;9.65;4.68;;;;;;;11.96;100.00;69729.91;5068926;28;20453;-46
2024/03/15 00:17:38;;;;;;;7.50;4.75;;;;;;;11.94;100.00;69730.78;5086210;28;20089;-46
2024/03/15 00:20:07;;;;;;;9.30;4.82;;;;;;;11.95;100.00;69726.72;5087257;28;20055;-51
2024/03/15 00:22:36;;;;;;;10.13;5.22;;;;;;;11.94;100.00;69730.16;5078841;28;20122;-49
2024/03/15 00:25:05;;;;;;;10.40;5.00;;;;;;;11.95;100.00;69729.31;5074618;28;20044;-49
2024/03/15 00:27:33;;;;;;;10.73;5.40;;;;;;;11.92;100.00;69728.41;5074869;28;20055;-46
2024/03/15 00:30:01;;;;;;;9.50;4.57;;;;;;;11.95;100.00;69729.31;5086992;28;20032;-49
2024/03/15 00:32:30;;;;;;;9.88;4.93;;;;;;;11.89;100.00;69719.69;5083864;28;20048;-50
2024/03/15 00:34:59;;;;;;;8.40;5.13;;;;;;;11.90;100.00;69720.25;5063482;28;20510;-50
2024/03/15 00:37:27;;;;;;;9.52;4.88;;;;;;;11.90;100.00;69718.25;5073036;28;20066;-48
2024/03/15 00:39:59;;;;;;;10.70;5.68;;;;;;;11.93;100.00;69723.75;5070684;28;20043;-46
2024/03/15 00:42:28;;;;;;;10.75;5.32;;;;;;;11.92;100.00;69725.81;5071780;28;20483;-47
2024/03/15 00:44:59;;;;;;;9.68;4.97;;;;;;;11.93;100.00;69726.38;5074430;28;20044;-46
2024/03/15 00:47:30;;;;;;;7.75;4.68;;;;;;;11.87;100.00;69722.56;5074354;28;20048;-50
2024/03/15 00:49:58;;;;;;;8.88;4.82;;;;;;;11.84;100.00;69716.47;5074267;28;20397;-46
2024/03/15 00:52:26;;;;;;;11.13;5.78;;;;;;;11.83;100.00;69715.88;5074031;28;20062;-49
2024/03/15 00:54:55;;;;;;;10.23;5.07;;;;;;;11.83;100.00;69713.25;5073923;28;20511;-46
2024/03/15 00:57:24;;;;;;;10.98;5.45;;;;;;;11.79;100.00;69708.00;5074009;28;20051;-48
2024/03/15 00:59:52;;;;;;;9.57;5.15;;;;;;;11.77;100.00;69705.66;5070109;28;20052;-48
2024/03/15 01:02:20;;;;;;;10.02;5.38;;;;;;;11.76;100.00;69707.69;5070486;28;20135;-45
2024/03/15 01:04:48;;;;;;;9.35;5.72;;;;;;;11.75;100.00;69703.91;5073766;28;20043;-47
2024/03/15 01:07:17;;;;;;;9.77;5.55;;;;;;;11.75;100.00;69703.31;5073637;28;20055;-47
2024/03/15 01:09:45;;;;;;;10.13;5.80;;;;;;;11.78;100.00;69704.81;5073539;28;20036;-48
2024/03/15 01:12:14;;;;;;;9.10;4.93;;;;;;;11.79;100.00;69705.97;5073762;28;20091;-47
2024/03/15 01:14:43;;;;;;;12.98;5.45;;;;;;;11.78;100.00;69706.81;5073889;28;20063;-46
2024/03/15 01:17:11;;;;;;;10.27;5.22;;;;;;;11.74;100.00;69702.75;5072241;28;20044;-48
2024/03/15 01:19:39;;;;;;;9.05;4.95;;;;;;;11.72;100.00;69702.44;5069726;28;20514;-49
2024/03/15 01:22:07;;;;;;;9.10;5.50;;;;;;;11.70;100.00;69700.69;5070479;28;20056;-46
2024/03/15 01:24:35;;;;;;;10.02;5.05;;;;;;;11.70;100.00;69698.06;5070664;28;20098;-46
2024/03/15 01:27:05;;;;;;;10.82;5.10;;;;;;;11.72;100.00;69703.00;5068999;28;20424;-47
2024/03/15 01:29:33;;;;;;;9.85;4.90;;;;;;;11.73;100.00;69703.63;5070174;28;20499;-47
2024/03/15 01:32:01;;;;;;;9.48;5.13;;;;;;;11.79;100.00;69708.00;5071051;28;20063;-46
2024/03/15 01:34:29;;;;;;;10.27;5.13;;;;;;;11.77;100.00;69705.66;5073583;28;20051;-54
2024/03/15 01:36:57;;;;;;;8.82;4.70;;;;;;;11.75;100.00;69706.53;5073465;28;20461;-52
2024/03/15 01:39:25;;;;;;;11.13;4.93;;;;;;;11.77;100.00;69710.91;5070373;28;20444;-53
2024/03/15 01:41:54;;;;;;;11.60;5.10;;;;;;;11.77;100.00;69703.06;5069208;28;20550;-54
2024/03/15 01:44:22;;;;;;;10.80;5.20;;;;;;;11.79;100.00;69708.00;5070138;28;20054;-53
2024/03/15 01:47:04;;;;;;;9.80;5.40;;;;;;;11.76;100.00;69707.13;5073911;28;20142;-52
2024/03/15 01:49:32;;;;;;;10.68;5.80;;;;;;;11.76;100.00;69710.31;5074166;28;20039;-50
2024/03/15 01:52:00;;;;;;;10.40;5.32;;;;;;;11.75;100.00;69698.09;5077333;28;20050;-50
2024/03/15 01:54:28;;;;;;;10.52;5.10;;;;;;;11.75;100.00;69705.94;5077074;28;20048;-51
2024/03/15 01:56:57;;;;;;;9.80;5.35;;;;;;;11.74;100.00;69707.38;5077079;28;20051;-53
2024/03/15 01:59:25;;;;;;;11.02;5.72;;;;;;;11.75;100.00;69703.31;5076738;28;20097;-53
2024/03/15 02:02:00;;;;;;;10.77;5.57;;;;;;;11.75;100.00;69703.91;5076780;28;20054;-54
2024/03/15 02:04:28;;;;;;;8.93;5.25;;;;;;;11.78;100.00;69707.41;5073388;28;20048;-51
2024/03/15 02:06:56;;;;;;;10.18;5.00;;;;;;;11.76;100.00;69707.13;5072852;28;20051;-53
2024/03/15 02:09:28;;;;;;;11.35;5.40;;;;;;;11.78;100.00;69706.81;5076898;28;20109;-54
2024/03/15 02:11:56;;;;;;;10.07;5.43;;;;;;;11.79;100.00;69716.44;5075519;28;20044;-52
2024/03/15 02:14:24;;;;;;;8.93;4.63;;;;;;;11.78;100.00;69712.06;5073744;28;20491;-50
2024/03/15 02:16:53;;;;;;;8.75;5.05;;;;;;;11.76;100.00;69704.50;5073796;28;20612;-53
2024/03/15 02:19:21;;;;;;;9.68;5.00;;;;;;;11.76;100.00;69704.50;5074066;28;20054;-51
2024/03/15 02:21:49;;;;;;;8.60;5.03;;;;;;;11.78;100.00;69706.81;5072712;28;20044;-53
2024/03/15 02:24:18;;;;;;;10.48;5.25;;;;;;;11.81;100.00;69710.91;5074633;28;20044;-53
2024/03/15 02:26:47;;;;;;;10.60;5.32;;;;;;;11.80;100.00;69711.78;5073808;28;20113;-52
2024/03/15 02:29:16;;;;;;;10.95;5.95;;;;;;;11.78;100.00;69706.81;5075982;28;20123;-52
2024/03/15 02:31:46;;;;;;;10.38;5.47;;;;;;;11.79;100.00;69713.22;5076479;28;20044;-53
2024/03/15 02:34:14;;;;;;;11.40;5.60;;;;;;;11.86;100.00;69715.59;5075936;28;20075;-53
2024/03/15 02:36:43;;;;;;;8.85;5.57;;;;;;;11.82;100.00;69712.09;5071787;28;20075;-53
2024/03/15 02:39:16;;;;;;;9.75;5.20;;;;;;;11.80;100.00;69711.78;5073665;28;20560;-48
2024/03/15 02:41:45;;;;;;;9.85;5.18;;;;;;;11.79;100.00;69702.75;5057643;28;20497;-53
2024/03/15 02:44:13;;;;;;;9.13;5.43;;;;;;;11.80;100.00;69709.75;5075091;28;20058;-52
2024/03/15 02:46:41;;;;;;;12.15;5.03;;;;;;;11.79;100.00;69715.84;5073242;28;20052;-51
2024/03/15 02:49:10;;;;;;;8.77;4.95;;;;;;;11.81;100.00;69710.34;5073272;28;20052;-54
2024/03/15 02:51:38;;;;;;;10.68;5.57;;;;;;;11.80;100.00;69709.16;5071883;28;20058;-50
2024/03/15 02:54:08;;;;;;;9.98;5.00;;;;;;;11.81;100.00;69710.91;5075243;28;20075;-53
2024/03/15 02:56:43;;;;;;;9.40;5.20;;;;;;;11.82;100.00;69714.72;5074751;28;20601;-53
2024/03/15 02:59:12;;;;;;;11.00;5.10;;;;;;;11.82;100.00;69712.09;5073894;28;20109;-53
2024/03/15 03:01:40;;;;;;;9.88;4.93;;;;;;;11.86;100.00;69718.78;5074694;28;20044;-52
2024/03/15 03:04:08;;;;;;;12.73;4.78;;;;;;;11.83;100.00;69715.88;5075961;28;20135;-53
2024/03/15 03:06:37;;;;;;;9.35;5.00;;;;;;;11.84;100.00;69719.06;5076116;28;20051;-51
2024/03/15 03:09:06;;;;;;;8.77;4.28;;;;;;;11.84;100.00;69709.19;5076065;28;20111;-51
2024/03/15 03:11:36;;;;;;;10.23;5.22;;;;;;;11.83;100.00;69712.66;5076087;28;20052;-52
2024/03/15 03:14:05;;;;;;;10.00;5.03;;;;;;;11.83;100.00;69715.88;5074906;28;20048;-52
2024/03/15 03:16:35;;;;;;;11.15;5.60;;;;;;;11.82;100.00;69706.88;5073062;28;20471;-53
2024/03/15 03:19:04;;;;;;;8.93;4.47;;;;;;;11.81;100.00;69710.91;5072578;28;20052;-51
2024/03/15 03:21:33;;;;;;;9.70;4.90;;;;;;;11.80;100.00;69709.75;5071184;28;20040;-52
2024/03/15 03:24:01;;;;;;;9.75;5.53;;;;;;;11.77;100.00;69708.28;5055831;28;20048;-52
2024/03/15 03:26:32;;;;;;;8.73;5.10;;;;;;;11.77;100.00;69708.28;5074248;28;20040;-53
2024/03/15 03:28:59;;;;;;;9.32;5.50;;;;;;;11.79;100.00;69708.00;5073490;28;20932;-53
2024/03/15 03:31:28;;;;;;;9.38;5.03;;;;;;;11.75;100.00;69703.31;5072357;28;20048;-51
2024/03/15 03:33:56;;;;;;;10.32;5.20;;;;;;;11.73;100.00;69701.00;5074205;28;20052;-51
2024/03/15 03:36:24;;;;;;;8.98;4.78;;;;;;;11.70;100.00;69692.25;5074864;28;20051;-51
2024/03/15 03:38:53;;;;;;;10.48;5.60;;;;;;;11.70;100.00;69700.09;5057071;28;20139;-52
2024/03/15 03:41:21;;;;;;;11.07;5.57;;;;;;;11.69;100.00;69701.56;5071860;28;20127;-49
2024/03/15 03:43:49;;;;;;;11.45;5.13;;;;;;;11.70;100.00;69694.88;5074100;28;20415;-52
2024/03/15 03:46:18;;;;;;;9.40;4.97;;;;;;;11.67;100.00;69694.56;5072362;28;20214;-52
2024/03/15 03:48:46;;;;;;;9.88;5.15;;;;;;;11.65;100.00;69687.56;5072020;28;20403;-53
2024/03/15 03:51:18;;;;;;;9.60;5.43;;;;;;;11.70;100.00;69694.88;5070788;28;20394;-54
2024/03/15 03:53:46;;;;;;;9.75;5.10;;;;;;;11.65;100.00;69695.41;5072078;28;20040;-53
2024/03/15 03:56:15;;;;;;;10.68;5.20;;;;;;;11.64;100.00;69696.88;5071843;28;20578;-52
2024/03/15 03:58:46;;;;;;;10.18;5.55;;;;;;;11.61;100.00;69685.53;5074003;28;20032;-51
2024/03/15 04:01:15;;;;;;;10.80;5.70;;;;;;;11.59;100.00;69685.81;5072115;28;20063;-54
2024/03/15 04:03:48;;;;;;;10.80;5.65;;;;;;;11.58;100.00;69689.28;5072298;28;20043;-53
2024/03/15 04:06:18;;;;;;;10.13;5.35;;;;;;;11.53;100.00;69678.22;5071644;28;20063;-53
2024/03/15 04:08:46;;;;;;;9.88;5.50;;;;;;;11.50;100.00;69678.47;5072585;28;20402;-52
2024/03/15 04:11:14;;;;;;;11.65;6.45;;;;;;;11.49;100.00;69672.09;5054297;28;20056;-50
2024/03/15 04:13:42;;;;;;;12.35;6.05;;;;;;;11.48;100.00;69675.59;5070823;28;20580;-52
2024/03/15 04:16:11;;;;;;;14.05;5.72;;;;;;;11.48;100.00;69678.78;5071502;28;20495;-51
2024/03/15 04:18:40;;;;;;;11.15;5.97;;;;;;;11.42;100.00;69668.56;5073558;28;20667;-53
2024/03/15 04:21:10;;;;;;;11.20;5.93;;;;;;;11.38;100.00;69663.91;5069862;28;20042;-52
2024/03/15 04:23:38;;;;;;;9.73;5.70;;;;;;;11.35;100.00;69660.97;5072058;28;20101;-52
2024/03/15 04:26:07;;;;;;;13.32;6.78;;;;;;;11.35;100.00;69655.16;5073722;28;20491;-52
2024/03/15 04:28:37;;;;;;;11.02;6.00;;;;;;;11.32;100.00;69650.22;5074295;28;20052;-53
2024/03/15 04:31:05;;;;;;;11.80;6.72;;;;;;;11.32;100.00;69649.63;5074857;28;20388;-49
2024/03/15 04:33:35;;;;;;;12.07;5.65;;;;;;;11.30;100.00;69653.13;5074135;28;20143;-51
2024/03/15 04:36:05;;;;;;;12.98;6.35;;;;;;;11.31;100.00;69653.69;5069980;28;20105;-51
2024/03/15 04:38:33;;;;;;;10.80;6.65;;;;;;;11.27;100.00;69654.81;5070748;28;20174;-51
2024/03/15 04:41:09;;;;;;;9.68;5.70;;;;;;;11.28;100.00;69653.38;5073997;28;20120;-52
2024/03/15 04:43:38;;;;;;;11.32;6.40;;;;;;;11.23;100.00;69647.53;5075011;28;20151;-53
2024/03/15 04:46:07;;;;;;;14.50;6.97;;;;;;;11.21;100.00;69644.63;5072121;28;20044;-53
2024/03/15 04:48:36;;;;;;;12.43;6.43;;;;;;;11.17;100.00;69640.53;5071726;28;20050;-53
2024/03/15 04:51:05;;;;;;;12.38;6.38;;;;;;;11.12;100.00;69635.28;5073534;28;20048;-52
2024/03/15 04:53:33;;;;;;;11.85;6.45;;;;;;;11.11;100.00;69628.91;5074393;28;20541;-53
2024/03/15 04:56:02;;;;;;;9.45;6.28;;;;;;;11.08;100.00;69630.59;5073839;28;20382;-52
2024/03/15 04:58:31;;;;;;;11.50;5.88;;;;;;;11.06;100.00;69625.09;5072744;28;20039;-51
2024/03/15 05:01:00;;;;;;;11.25;6.55;;;;;;;11.07;100.00;69628.84;5070766;28;20036;-53
2024/03/15 05:03:29;;;;;;;13.52;6.47;;;;;;;11.06;100.00;69620.44;5073766;28;20062;-53
2024/03/15 05:05:58;;;;;;;11.27;6.38;;;;;;;11.07;100.00;69628.84;5069816;28;20044;-51
2024/03/15 05:08:27;;;;;;;12.70;6.57;;;;;;;11.08;100.00;69630.03;5071594;28;20048;-52
2024/03/15 05:10:56;;;;;;;10.27;5.88;;;;;;;11.08;100.00;69632.63;5073981;28;20087;-54
2024/03/15 05:13:24;;;;;;;9.75;5.68;;;;;;;11.10;100.00;69634.97;5057441;28;20475;-50
2024/03/15 05:15:53;;;;;;;10.70;6.35;;;;;;;11.09;100.00;69631.19;5073915;28;20402;-50
2024/03/15 05:18:21;;;;;;;10.55;5.63;;;;;;;11.12;100.00;69635.28;5073284;28;20047;-50
2024/03/15 05:20:49;;;;;;;10.85;6.25;;;;;;;11.12;100.00;69632.09;5073041;28;20041;-51
2024/03/15 05:23:17;;;;;;;11.20;5.95;;;;;;;11.11;100.00;69628.91;5073129;28;20044;-53
2024/03/15 05:25:46;;;;;;;11.60;6.03;;;;;;;11.11;100.00;69634.13;5074922;28;20044;-51
2024/03/15 05:28:17;;;;;;;9.68;5.68;;;;;;;11.11;100.00;69633.53;5075226;28;20048;-53
2024/03/15 05:30:46;;;;;;;9.90;5.50;;;;;;;11.12;100.00;69635.28;5076691;28;20821;-52
2024/03/15 05:33:14;;;;;;;12.68;5.85;;;;;;;11.16;100.00;69639.38;5077393;28;20051;-53
2024/03/15 05:35:43;;;;;;;10.40;5.40;;;;;;;11.17;100.00;69643.16;5077806;28;20056;-52
2024/03/15 05:38:11;;;;;;;11.57;5.43;;;;;;;11.15;100.00;69635.59;5077579;28;20062;-53
2024/03/15 05:40:39;;;;;;;11.82;5.20;;;;;;;11.16;100.00;69642.56;5075846;28;20522;-50
2024/03/15 05:43:07;;;;;;;10.88;5.47;;;;;;;11.17;100.00;69637.94;5057621;28;20105;-49
2024/03/15 05:45:36;;;;;;;9.63;5.57;;;;;;;11.16;100.00;69644.59;5074609;28;20083;-51
2024/03/15 05:48:05;;;;;;;10.00;5.60;;;;;;;11.14;100.00;69640.22;5061090;28;20052;-50
2024/03/15 05:50:36;;;;;;;9.90;5.18;;;;;;;11.13;100.00;69636.44;5077904;28;20135;-52
2024/03/15 05:53:05;;;;;;;12.95;5.80;;;;;;;11.18;100.00;69641.13;5075122;28;20090;-53
2024/03/15 05:55:34;;;;;;;10.13;5.40;;;;;;;11.17;100.00;69640.53;5074776;28;20093;-53
2024/03/15 05:58:02;;;;;;;11.43;5.57;;;;;;;11.18;100.00;69644.31;5077360;28;20059;-53
2024/03/15 06:00:33;;;;;;;10.85;5.20;;;;;;;11.21;100.00;69642.00;5076980;28;20126;-53
2024/03/15 06:03:05;;;;;;;9.57;5.13;;;;;;;11.18;100.00;69641.72;5077477;28;20056;-53
2024/03/15 06:05:34;;;;;;;13.65;6.03;;;;;;;11.18;100.00;69641.72;5077739;28;20085;-51
2024/03/15 06:08:02;;;;;;;10.63;5.28;;;;;;;11.17;100.00;69640.53;5077173;28;20388;-53
2024/03/15 06:10:30;;;;;;;12.43;4.80;;;;;;;11.18;100.00;69641.13;5074056;28;20079;-53
2024/03/15 06:12:59;;;;;;;10.70;5.55;;;;;;;11.20;100.00;69641.41;5073358;28;20040;-53
2024/03/15 06:15:27;;;;;;;9.27;5.15;;;;;;;11.23;100.00;69644.34;5074891;28;20063;-52
2024/03/15 06:17:55;;;;;;;9.43;5.25;;;;;;;11.26;100.00;69650.47;5076490;28;20491;-51
2024/03/15 06:20:23;;;;;;;11.63;5.22;;;;;;;11.26;100.00;69651.06;5076557;28;20043;-50
2024/03/15 06:22:51;;;;;;;10.52;4.78;;;;;;;11.28;100.00;69655.41;5076703;28;20059;-52
2024/03/15 06:25:20;;;;;;;9.55;4.93;;;;;;;11.27;100.00;69649.00;5076901;28;20463;-53
2024/03/15 06:27:51;;;;;;;11.35;5.03;;;;;;;11.33;100.00;69658.66;5077268;28;20541;-53
2024/03/15 06:30:19;;;;;;;10.90;4.65;;;;;;;11.31;100.00;69654.25;5076682;28;20028;-52
2024/03/15 06:32:48;;;;;;;10.23;4.95;;;;;;;11.35;100.00;69660.97;5074438;28;20056;-52
2024/03/15 06:35:19;;;;;;;14.75;5.18;;;;;;;11.38;100.00;69663.91;5071279;28;20766;-47
2024/03/15 06:37:53;;;;;;;10.67;4.97;;;;;;;11.38;100.00;69663.91;5076740;28;20105;-47
2024/03/15 06:40:30;;;;;;;10.55;5.38;;;;;;;11.38;100.00;69656.06;5077013;28;20054;-49
2024/03/15 06:43:25;;;;;;;10.75;5.43;;;;;;;11.38;100.00;69667.09;5077415;28;20105;-47
2024/03/15 06:45:56;;;;;;;10.77;5.10;;;;;;;11.40;100.00;69661.59;5079652;28;20035;-48
2024/03/15 06:48:33;;;;;;;11.98;4.82;;;;;;;11.40;100.00;69658.97;5075973;28;20098;-49
2024/03/15 06:52:31;;;;;;;11.27;5.55;;;;;;;11.42;100.00;69665.94;5072808;28;20098;-48
2024/03/15 06:53:49;;;;;;;10.70;5.25;;;;;;;11.43;100.00;69664.50;5076158;28;20470;-48
2024/03/15 06:56:17;;;;;;;9.93;5.10;;;;;;;11.47;100.00;69671.78;5056370;28;20573;-48
2024/03/15 06:58:47;;;;;;;9.48;4.82;;;;;;;11.48;100.00;69676.16;5076447;28;20052;-48
2024/03/15 07:01:16;;;;;;;9.93;5.20;;;;;;;11.56;100.00;69679.69;5076148;28;20478;-48
2024/03/15 07:03:44;;;;;;;9.82;5.25;;;;;;;11.60;100.00;69683.78;5075914;28;20109;-51
2024/03/15 07:06:13;;;;;;;9.52;4.40;;;;;;;11.61;100.00;69690.75;5075882;28;20056;-53
2024/03/15 07:08:41;;;;;;;10.50;4.88;;;;;;;11.61;100.00;69682.91;5073027;28;20360;-53
2024/03/15 07:11:10;;;;;;;9.93;4.80;;;;;;;11.62;100.00;69689.31;5057643;28;20048;-53
2024/03/15 07:13:38;;;;;;;9.80;4.70;;;;;;;11.66;100.00;69696.03;5074584;28;20657;-52
2024/03/15 07:16:08;;;;;;;11.57;5.25;;;;;;;11.65;100.00;69695.41;5072539;28;20052;-52
2024/03/15 07:18:37;;;;;;;11.18;5.03;;;;;;;11.65;100.00;69692.81;5074498;28;20055;-48
2024/03/15 07:21:06;;;;;;;10.02;4.88;;;;;;;11.70;100.00;69700.69;5075267;28;20040;-47
2024/03/15 07:23:35;;;;;;;11.60;5.45;;;;;;;11.75;100.00;69698.09;5073048;28;20113;-48
2024/03/15 07:26:10;;;;;;;10.15;5.38;;;;;;;11.80;100.00;69709.75;5074054;28;20093;-48
2024/03/15 07:28:41;;;;;;;11.93;4.80;;;;;;;11.83;100.00;69704.81;5076037;28;20051;-47
2024/03/15 07:31:09;;;;;;;11.93;5.28;;;;;;;11.88;100.00;69718.50;5075869;28;20093;-48
2024/03/15 07:33:40;;;;;;;9.80;5.10;;;;;;;11.92;100.00;69725.81;5075665;28;20394;-47
2024/03/15 07:36:13;;;;;;;10.18;5.47;;;;;;;11.95;100.00;69726.13;5075165;28;20051;-48
2024/03/15 07:38:42;;;;;;;10.65;4.82;;;;;;;12.00;100.00;69731.97;5076119;28;20142;-48
2024/03/15 07:41:12;;;;;;;9.45;5.25;;;;;;;12.04;100.00;69730.81;5075602;28;20047;-47
2024/03/15 07:43:40;;;;;;;10.57;5.03;;;;;;;12.08;100.00;69740.72;5072950;28;20107;-48
2024/03/15 07:46:09;;;;;;;9.52;5.50;;;;;;;12.17;100.00;69748.63;5072128;28;20044;-47
2024/03/15 07:48:38;;;;;;;9.73;4.90;;;;;;;12.25;100.00;69754.78;5074402;28;20461;-50
2024/03/15 07:51:09;;;;;;;10.18;4.97;;;;;;;12.30;100.00;69765.88;5075519;28;20539;-47
2024/03/15 07:53:37;;;;;;;12.65;4.63;;;;;;;12.30;100.00;69766.44;5073246;28;20527;-49
2024/03/15 07:56:09;;;;;;;11.10;4.40;;;;;;;12.32;100.00;69770.81;5071504;28;20043;-50
2024/03/15 07:58:37;;;;;;;10.10;4.78;;;;;;;12.32;100.00;69771.41;5074755;28;20428;-48
2024/03/15 08:01:07;;;;;;;8.98;4.75;;;;;;;12.37;100.00;69770.84;5070824;28;20044;-48
2024/03/15 08:03:36;;;;;;;9.30;4.10;;;;;;;12.42;100.00;69784.53;5072090;28;20044;-52
2024/03/15 08:06:06;;;;;;;11.60;5.25;;;;;;;12.48;100.00;69788.94;5069620;28;20495;-46
2024/03/15 08:08:34;;;;;;;7.80;4.50;;;;;;;12.62;100.00;69804.72;5073790;28;20067;-48
2024/03/15 08:11:03;;;;;;;8.40;4.57;;;;;;;12.70;100.00;69816.09;5071564;28;20119;-48
2024/03/15 08:13:37;;;;;;;9.57;4.13;;;;;;;12.70;100.00;69808.25;5072469;28;20051;-50
2024/03/15 08:16:23;;;;;;;7.90;4.07;;;;;;;12.71;100.00;69812.63;5075581;28;20452;-50
2024/03/15 08:18:53;;;;;;;8.82;3.75;;;;;;;12.74;100.00;69818.16;5076825;28;20052;-53
2024/03/15 08:21:24;;;;;;;9.07;3.25;;;;;;;12.73;100.00;69814.38;5074690;28;20047;-54
2024/03/15 08:23:53;;;;;;;10.32;3.25;;;;;;;12.74;100.00;69818.75;5072076;28;20056;-53
2024/03/15 08:26:24;;;;;;;10.45;4.15;;;;;;;12.76;100.00;69823.72;5073042;28;20121;-53
2024/03/15 08:28:52;;;;;;;8.82;3.67;;;;;;;12.77;100.00;69819.03;5074483;28;20044;-50
2024/03/15 08:31:21;;;;;;;8.63;3.67;;;;;;;12.78;100.00;69814.97;5074184;28;20127;-53
2024/03/15 08:33:49;;;;;;;8.52;3.50;;;;;;;12.78;100.00;69825.47;5071611;28;20832;-50
2024/03/15 08:36:21;;;;;;;10.20;3.92;;;;;;;12.79;100.00;69819.34;5069568;28;20051;-53
2024/03/15 08:38:49;;;;;;;9.95;3.90;;;;;;;12.84;100.00;69830.44;5071245;28;20043;-53
2024/03/15 08:41:18;;;;;;;8.60;3.72;;;;;;;12.91;100.00;69838.03;5071083;28;20487;-52
2024/03/15 08:43:46;;;;;;;9.50;4.05;;;;;;;12.95;100.00;69837.47;5073146;28;20066;-52
2024/03/15 08:46:14;;;;;;;12.23;4.30;;;;;;;12.96;100.00;69841.25;5074270;28;20047;-54
2024/03/15 08:48:43;;;;;;;8.02;4.00;;;;;;;12.98;100.00;69846.22;5073781;28;20044;-51
2024/03/15 08:51:11;;;;;;;10.38;4.32;;;;;;;12.98;100.00;69843.03;5069278;28;20032;-53
2024/03/15 08:53:41;;;;;;;9.52;4.03;;;;;;;12.98;100.00;69843.03;5072008;28;20131;-54
2024/03/15 08:56:09;;;;;;;10.30;4.13;;;;;;;12.99;100.00;69841.56;5073859;28;20526;-54
2024/03/15 08:58:38;;;;;;;8.57;3.38;;;;;;;12.96;100.00;69838.63;5071826;28;20067;-52
2024/03/15 09:01:06;;;;;;;9.35;3.65;;;;;;;12.99;100.00;69844.19;5070322;28;20542;-53
2024/03/15 09:03:34;;;;;;;9.20;4.00;;;;;;;12.98;100.00;69846.22;5073991;28;20048;-52
2024/03/15 09:06:08;;;;;;;11.25;4.32;;;;;;;12.88;100.00;69831.91;5058822;28;20418;-53
2024/03/15 09:08:36;;;;;;;7.85;3.97;;;;;;;12.79;100.00;69819.34;5091165;28;20058;-48
2024/03/15 09:11:06;;;;;;;9.38;4.28;;;;;;;12.82;100.00;69825.47;5073753;28;20134;-48
2024/03/15 09:13:35;;;;;;;9.45;4.43;;;;;;;12.75;100.00;69816.69;5057470;28;20506;-48
2024/03/15 09:16:09;;;;;;;9.20;4.78;;;;;;;12.75;100.00;69825.16;5074675;28;20051;-50
2024/03/15 09:18:37;;;;;;;8.35;4.47;;;;;;;12.73;100.00;69814.94;5073708;28;20499;-48
2024/03/15 09:21:08;;;;;;;9.23;4.80;;;;;;;12.80;100.00;69823.16;5074100;28;20051;-50
2024/03/15 09:23:37;;;;;;;8.70;4.53;;;;;;;12.80;100.00;69822.53;5073779;28;20048;-49
2024/03/15 09:26:06;;;;;;;8.07;4.00;;;;;;;12.81;100.00;69824.31;5073746;28;20122;-53
2024/03/15 09:28:37;;;;;;;10.52;4.63;;;;;;;12.81;100.00;69823.72;5057508;28;20048;-52
2024/03/15 09:31:08;;;;;;;7.95;4.53;;;;;;;12.82;100.00;69827.50;5074045;28;20052;-48
2024/03/15 09:33:57;;;;;;;8.23;4.32;;;;;;;12.85;100.00;69828.41;5076647;28;20132;-48
2024/03/15 09:36:28;;;;;;;8.30;3.80;;;;;;;12.88;100.00;69831.91;5073940;28;20106;-50
2024/03/15 09:38:56;;;;;;;8.43;3.78;;;;;;;12.88;100.00;69826.66;5073868;28;20059;-48
2024/03/15 09:41:25;;;;;;;8.90;3.00;;;;;;;12.83;100.00;69823.44;5073843;28;20085;-49
2024/03/15 09:43:54;;;;;;;8.70;3.05;;;;;;;12.81;100.00;69824.31;5073270;28;20056;-48
2024/03/15 09:46:25;;;;;;;8.40;2.97;;;;;;;12.83;100.00;69824.03;5074020;28;20052;-47
2024/03/15 09:48:56;;;;;;;9.18;2.88;;;;;;;12.98;100.00;69843.03;5073483;28;20044;-50
2024/03/15 09:51:24;;;;;;;8.95;2.85;;;;;;;13.07;100.00;69850.91;5073963;28;20253;-49
2024/03/15 09:53:53;;;;;;;8.00;2.60;;;;;;;13.20;100.00;69865.53;5073371;28;20379;-48
2024/03/15 09:56:22;;;;;;;6.95;3.08;;;;;;;13.30;100.00;69879.84;5073284;28;20076;-49
2024/03/15 09:58:50;;;;;;;7.03;2.80;;;;;;;13.35;100.00;69885.72;5071532;28;20068;-50
2024/03/15 10:01:18;;;;;;;10.27;2.80;;;;;;;13.40;100.00;69885.72;5069890;28;20063;-49
2024/03/15 10:03:47;;;;;;;9.80;2.72;;;;;;;13.52;100.00;69902.41;5073084;28;20141;-48
2024/03/15 10:06:16;;;;;;;8.65;2.47;;;;;;;13.77;100.00;69932.50;5073492;28;20036;-50
2024/03/15 10:08:44;;;;;;;9.25;2.85;;;;;;;13.93;100.00;69951.22;5073435;28;20056;-46
2024/03/15 10:11:12;;;;;;;7.75;2.40;;;;;;;14.26;100.00;69988.69;5074989;28;20044;-47
2024/03/15 10:13:43;;;;;;;7.30;2.42;;;;;;;14.42;100.00;70009.44;5077034;28;20454;-47
2024/03/15 10:16:14;;;;;;;7.28;1.85;;;;;;;14.51;100.00;70016.78;5076715;28;20048;-48
2024/03/15 10:18:43;;;;;;;7.28;2.17;;;;;;;14.63;100.00;70028.22;5077041;28;20066;-46
2024/03/15 10:21:11;;;;;;;8.18;2.33;;;;;;;14.69;100.00;70037.28;5076710;28;20044;-47
2024/03/15 10:23:40;;;;;;;6.90;2.00;;;;;;;14.86;100.00;70057.19;5074986;28;20486;-54
2024/03/15 10:26:08;;;;;;;7.15;1.92;;;;;;;15.04;100.00;70077.69;5073594;28;20043;-53
2024/03/15 10:28:36;;;;;;;5.93;1.95;;;;;;;15.25;100.00;70095.84;5076293;28;20052;-53
2024/03/15 10:31:05;;;;;;;7.28;2.35;;;;;;;15.46;100.00;70124.53;5076813;28;20056;-53
2024/03/15 10:33:33;;;;;;;7.63;1.98;;;;;;;15.59;100.00;70139.75;5075848;28;20127;-54
2024/03/15 10:36:03;;;;;;;6.93;2.38;;;;;;;15.75;100.00;70157.94;5071732;28;20072;-54
2024/03/15 10:38:37;;;;;;;5.07;2.00;;;;;;;15.94;100.00;70182.25;5059446;28;20101;-51
2024/03/15 10:41:06;;;;;;;4.75;1.83;;;;;;;16.14;100.00;70199.84;5073692;28;20490;-55
2024/03/15 10:43:35;;;;;;;6.88;1.80;;;;;;;16.27;100.00;70214.50;5073538;28;20050;-55
2024/03/15 10:46:06;;;;;;;9.02;2.53;;;;;;;16.30;100.00;70220.06;5073208;28;20624;-55
2024/03/15 10:48:34;;;;;;;6.05;1.90;;;;;;;16.64;100.00;70256.69;5073244;28;20411;-54
2024/03/15 10:51:02;;;;;;;8.05;2.67;;;;;;;16.79;100.00;70273.69;5058098;28;20054;-53
2024/03/15 10:53:30;;;;;;;9.02;2.20;;;;;;;16.93;100.00;70297.47;5076060;28;20424;-54
2024/03/15 10:55:59;;;;;;;8.07;2.17;;;;;;;16.97;100.00;70296.88;5076207;28;20586;-54
2024/03/15 10:58:29;;;;;;;7.53;2.00;;;;;;;16.81;100.00;70278.09;5075280;28;20522;-54
2024/03/15 11:00:57;;;;;;;8.88;1.90;;;;;;;16.88;100.00;70286.91;5072889;28;20047;-55
2024/03/15 11:03:28;;;;;;;6.28;2.08;;;;;;;16.70;100.00;70269.00;5074368;28;20470;-55
2024/03/15 11:05:56;;;;;;;9.00;2.45;;;;;;;16.73;100.00;70269.88;5076133;28;20447;-53
2024/03/15 11:08:25;;;;;;;6.95;2.30;;;;;;;16.86;100.00;70284.53;5072904;28;20036;-54
2024/03/15 11:10:54;;;;;;;7.78;2.22;;;;;;;17.06;100.00;70309.50;5055946;28;20048;-53
2024/03/15 11:13:23;;;;;;;6.20;2.30;;;;;;;17.10;100.00;70310.94;5056798;28;20042;-53
2024/03/15 11:15:52;;;;;;;7.45;2.50;;;;;;;17.04;100.00;70307.75;5074342;28;20517;-55
2024/03/15 11:18:23;;;;;;;8.10;2.42;;;;;;;17.03;100.00;70300.72;5076424;28;20059;-52
2024/03/15 11:20:53;;;;;;;7.70;2.22;;;;;;;17.12;100.00;70315.94;5075666;28;20139;-53
2024/03/15 11:23:21;;;;;;;5.85;2.05;;;;;;;17.27;100.00;70330.88;5074820;28;20101;-53
2024/03/15 11:25:56;;;;;;;9.13;2.28;;;;;;;17.19;100.00;70326.78;5075580;28;20139;-52
2024/03/15 11:28:27;;;;;;;6.70;2.38;;;;;;;17.09;100.00;70313.00;5076010;28;20047;-53
2024/03/15 11:30:55;;;;;;;7.68;2.50;;;;;;;17.04;100.00;70307.75;5072961;28;20067;-54